createdAt,value
2022-12-20T00:01:54.940Z,102312.19
2022-12-20T00:04:22.868Z,102305.25
2022-12-20T00:06:50.945Z,102313.34
2022-12-20T00:09:18.717Z,102303.63
2022-12-20T00:11:47.131Z,102306.19
2022-12-20T00:14:14.875Z,102300.78
2022-12-20T00:16:43.267Z,102290.59
2022-12-20T00:19:11.689Z,102288.47
2022-12-20T00:21:39.898Z,102293.56
2022-12-20T00:24:08.104Z,102286.69
2022-12-20T00:26:39.286Z,102284.81
2022-12-20T00:29:07.914Z,102281.03
2022-12-20T00:31:37.314Z,102285.53
2022-12-20T00:34:05.178Z,102288.31
2022-12-20T00:36:34.401Z,102290.47
2022-12-20T00:39:02.630Z,102282.94
2022-12-20T00:41:33.602Z,102288.50
2022-12-20T00:44:02.924Z,102292.53
2022-12-20T00:46:32.109Z,102282.75
2022-12-20T00:49:00.406Z,102280.91
2022-12-20T00:51:30.283Z,102277.91
2022-12-20T00:53:58.786Z,102281.53
2022-12-20T00:56:27.376Z,102290.72
2022-12-20T00:58:59.802Z,102285.09
2022-12-20T01:01:31.194Z,102284.28
2022-12-20T01:03:59.776Z,102283.28
2022-12-20T01:06:29.246Z,102282.03
2022-12-20T01:08:59.290Z,102279.50
2022-12-20T01:11:32.221Z,102266.13
2022-12-20T01:14:03.708Z,102278.16
2022-12-20T01:16:37.891Z,102265.66
2022-12-20T01:19:07.282Z,102272.63
2022-12-20T01:21:35.517Z,102277.13
2022-12-20T01:24:03.503Z,102261.78
2022-12-20T01:26:31.684Z,102264.03
2022-12-20T01:29:00.891Z,102255.59
2022-12-20T01:31:30.040Z,102260.81
2022-12-20T01:33:59.413Z,102261.94
2022-12-20T01:36:30.836Z,102258.56
2022-12-20T01:39:00.841Z,102258.16
2022-12-20T01:41:31.073Z,102260.81
2022-12-20T01:44:02.329Z,102254.38
2022-12-20T01:46:34.082Z,102249.25
2022-12-20T01:49:08.560Z,102256.97
2022-12-20T01:51:50.344Z,102252.84
2022-12-20T01:54:32.687Z,102250.38
2022-12-20T01:57:07.816Z,102242.25
2022-12-20T01:59:40.457Z,102235.28
2022-12-20T02:02:12.636Z,102226.91
2022-12-20T02:04:41.535Z,102224.75
2022-12-20T02:07:14.607Z,102219.91
2022-12-20T02:09:42.516Z,102216.31
2022-12-20T02:12:27.255Z,102213.41
2022-12-20T02:15:07.470Z,102220.56
2022-12-20T02:17:54.959Z,102208.78
2022-12-20T02:20:59.769Z,102205.44
2022-12-20T02:23:31.766Z,102206.31
2022-12-20T02:26:08.777Z,102194.53
2022-12-20T02:29:09.787Z,102193.34
2022-12-20T02:31:47.937Z,102197.50
2022-12-20T02:34:17.858Z,102197.50
2022-12-20T02:36:45.648Z,102200.72
2022-12-20T02:39:16.810Z,102199.19
2022-12-20T02:41:53.627Z,102189.59
2022-12-20T02:44:45.407Z,102197.91
2022-12-20T02:47:21.619Z,102190.44
2022-12-20T02:49:51.789Z,102202.44
2022-12-20T02:52:26.825Z,102198.69
2022-12-20T02:54:55.916Z,102198.16
2022-12-20T02:57:44.346Z,102186.19
2022-12-20T03:00:19.310Z,102192.94
2022-12-20T03:03:07.350Z,102189.16
2022-12-20T03:05:44.357Z,102191.16
2022-12-20T03:08:12.616Z,102186.91
2022-12-20T03:10:41.886Z,102181.69
2022-12-20T03:13:10.334Z,102183.13
2022-12-20T03:15:45.023Z,102180.78
2022-12-20T03:18:13.787Z,102171.72
2022-12-20T03:20:43.202Z,102168.09
2022-12-20T03:23:11.036Z,102173.16
2022-12-20T03:25:40.419Z,102171.06
2022-12-20T03:28:10.841Z,102178.41
2022-12-20T03:30:39.073Z,102175.81
2022-12-20T03:33:07.118Z,102177.97
2022-12-20T03:35:35.875Z,102168.53
2022-12-20T03:38:03.871Z,102171.22
2022-12-20T03:40:33.273Z,102169.94
2022-12-20T03:43:02.386Z,102166.81
2022-12-20T03:45:31.901Z,102161.69
2022-12-20T03:48:00.077Z,102166.09
2022-12-20T03:50:34.766Z,102164.81
2022-12-20T03:53:03.256Z,102173.88
2022-12-20T03:55:31.735Z,102168.19
2022-12-20T03:58:00.726Z,102164.88
2022-12-20T04:00:33.980Z,102169.47
2022-12-20T04:03:33.925Z,102165.28
2022-12-20T04:06:02.172Z,102169.22
2022-12-20T04:08:30.082Z,102163.28
2022-12-20T04:11:16.711Z,102167.22
2022-12-20T04:14:00.932Z,102167.31
2022-12-20T04:16:30.485Z,102160.72
2022-12-20T04:18:58.411Z,102164.97
2022-12-20T04:21:33.456Z,102168.00
2022-12-20T04:24:03.582Z,102157.78
2022-12-20T04:26:43.318Z,102160.44
2022-12-20T04:29:13.276Z,102171.25
2022-12-20T04:31:43.347Z,102157.47
2022-12-20T04:34:12.246Z,102153.22
2022-12-20T04:36:42.801Z,102146.75
2022-12-20T04:39:16.317Z,102141.28
2022-12-20T04:42:08.418Z,102140.94
2022-12-20T04:44:36.677Z,102137.25
2022-12-20T04:47:06.583Z,102130.00
2022-12-20T04:49:34.646Z,102130.00
2022-12-20T04:52:22.448Z,102134.56
2022-12-20T04:54:51.134Z,102123.72
2022-12-20T04:57:25.479Z,102129.19
2022-12-20T04:59:53.858Z,102131.03
2022-12-20T05:02:22.117Z,102129.72
2022-12-20T05:04:57.559Z,102131.03
2022-12-20T05:07:26.277Z,102128.09
2022-12-20T05:09:56.785Z,102136.47
2022-12-20T05:12:24.999Z,102131.53
2022-12-20T05:14:53.399Z,102133.00
2022-12-20T05:17:24.086Z,102125.84
2022-12-20T05:19:54.356Z,102119.97
2022-12-20T05:22:41.647Z,102127.84
2022-12-20T05:25:31.591Z,102119.66
2022-12-20T05:28:04.652Z,102128.50
2022-12-20T05:30:35.952Z,102116.50
2022-12-20T05:33:04.471Z,102129.09
2022-12-20T05:35:34.049Z,102122.09
2022-12-20T05:38:08.360Z,102131.03
2022-12-20T05:40:37.267Z,102129.03
2022-12-20T05:43:06.425Z,102122.91
2022-12-20T05:45:50.033Z,102115.69
2022-12-20T05:48:22.638Z,102115.31
2022-12-20T05:50:50.405Z,102106.72
2022-12-20T05:53:31.373Z,102104.44
2022-12-20T05:56:02.606Z,102104.06
2022-12-20T05:58:35.334Z,102103.47
2022-12-20T06:01:09.248Z,102098.91
2022-12-20T06:03:41.039Z,102099.03
2022-12-20T06:06:15.687Z,102104.00
2022-12-20T06:08:48.355Z,102093.81
2022-12-20T06:11:36.449Z,102097.78
2022-12-20T06:14:10.267Z,102105.94
2022-12-20T06:16:41.936Z,102101.41
2022-12-20T06:19:26.507Z,102101.13
2022-12-20T06:21:59.417Z,102108.38
2022-12-20T06:24:48.857Z,102106.25
2022-12-20T06:27:23.107Z,102100.78
2022-12-20T06:30:00.108Z,102102.63
2022-12-20T06:32:35.485Z,102097.22
2022-12-20T06:35:04.535Z,102098.91
2022-12-20T06:37:33.337Z,102096.94
2022-12-20T06:40:01.219Z,102104.13
2022-12-20T06:42:29.418Z,102103.16
2022-12-20T06:44:57.381Z,102105.81
2022-12-20T06:47:25.687Z,102104.84
2022-12-20T06:49:55.237Z,102110.75
2022-12-20T06:52:25.982Z,102108.84
2022-12-20T06:54:56.034Z,102114.16
2022-12-20T06:57:25.187Z,102106.41
2022-12-20T06:59:54.613Z,102103.25
2022-12-20T07:02:25.257Z,102108.47
2022-12-20T07:04:55.739Z,102113.19
2022-12-20T07:07:24.928Z,102116.69
2022-12-20T07:09:52.752Z,102116.38
2022-12-20T07:12:22.559Z,102111.56
2022-12-20T07:14:50.472Z,102108.03
2022-12-20T07:17:18.553Z,102121.94
2022-12-20T07:19:50.722Z,102116.13
2022-12-20T07:22:19.287Z,102117.81
2022-12-20T07:24:48.999Z,102120.81
2022-12-20T07:27:17.959Z,102113.31
2022-12-20T07:29:45.786Z,102117.94
2022-12-20T07:32:14.643Z,102124.75
2022-12-20T07:34:42.559Z,102112.00
2022-12-20T07:37:11.909Z,102115.13
2022-12-20T07:39:39.757Z,102119.97
2022-12-20T07:42:12.073Z,102115.72
2022-12-20T07:44:43.803Z,102113.16
2022-12-20T07:47:13.161Z,102107.84
2022-12-20T07:49:41.210Z,102115.09
2022-12-20T07:52:13.484Z,102116.88
2022-12-20T07:54:46.259Z,102113.63
2022-12-20T07:57:29.955Z,102108.84
2022-12-20T08:00:01.312Z,102105.13
2022-12-20T08:02:49.225Z,102121.13
2022-12-20T08:05:19.066Z,102126.75
2022-12-20T08:07:52.249Z,102124.34
2022-12-20T08:10:25.429Z,102122.88
2022-12-20T08:12:53.628Z,102124.06
2022-12-20T08:15:23.374Z,102124.97
2022-12-20T08:17:51.579Z,102124.88
2022-12-20T08:20:19.830Z,102110.44
2022-12-20T08:22:48.043Z,102110.41
2022-12-20T08:25:15.790Z,102119.50
2022-12-20T08:27:43.920Z,102115.88
2022-12-20T08:30:12.259Z,102121.28
2022-12-20T08:32:42.283Z,102120.00
2022-12-20T08:35:10.039Z,102118.28
2022-12-20T08:37:38.218Z,102123.91
2022-12-20T08:40:07.880Z,102126.94
2022-12-20T08:42:35.973Z,102118.16
2022-12-20T08:45:05.503Z,102118.06
2022-12-20T08:47:34.858Z,102114.28
2022-12-20T08:50:03.238Z,102127.03
2022-12-20T08:52:31.328Z,102128.09
2022-12-20T08:55:01.444Z,102131.88
2022-12-20T08:57:31.248Z,102123.63
2022-12-20T08:59:59.029Z,102134.28
2022-12-20T09:02:27.584Z,102121.84
2022-12-20T09:04:57.169Z,102128.16
2022-12-20T09:07:25.270Z,102131.47
2022-12-20T09:09:52.981Z,102128.44
2022-12-20T09:12:21.347Z,102122.78
2022-12-20T09:14:49.251Z,102134.06
2022-12-20T09:17:17.429Z,102120.78
2022-12-20T09:19:45.178Z,102128.34
2022-12-20T09:22:13.287Z,102133.66
2022-12-20T09:24:41.216Z,102130.50
2022-12-20T09:27:09.359Z,102128.25
2022-12-20T09:29:37.247Z,102114.75
2022-12-20T09:32:06.156Z,102121.50
2022-12-20T09:34:33.940Z,102111.47
2022-12-20T09:37:02.107Z,102118.78
2022-12-20T09:39:30.015Z,102114.69
2022-12-20T09:41:59.931Z,102116.03
2022-12-20T09:44:31.870Z,102113.88
2022-12-20T09:47:17.780Z,102097.78
2022-12-20T09:49:50.135Z,102100.69
2022-12-20T09:52:29.049Z,102093.72
2022-12-20T09:55:11.448Z,102096.69
2022-12-20T09:58:08.680Z,102104.75
2022-12-20T10:00:48.549Z,102096.34
2022-12-20T10:03:30.468Z,102099.69
2022-12-20T10:06:04.456Z,102100.94
2022-12-20T10:08:44.487Z,102085.38
2022-12-20T10:11:41.863Z,102095.94
2022-12-20T10:14:31.028Z,102075.88
2022-12-20T10:17:08.897Z,102075.16
2022-12-20T10:20:02.996Z,102064.50
2022-12-20T10:22:41.217Z,102055.16
2022-12-20T10:25:14.880Z,102041.47
2022-12-20T10:27:45.057Z,102052.09
2022-12-20T10:30:35.740Z,102051.22
2022-12-20T10:33:03.712Z,102037.50
2022-12-20T10:35:39.309Z,102044.31
2022-12-20T10:38:12.950Z,102032.38
2022-12-20T10:44:03.262Z,102023.78
2022-12-20T10:46:38.083Z,102034.84
2022-12-20T10:49:34.754Z,102030.28
2022-12-20T10:52:08.720Z,102019.19
2022-12-20T10:54:43.947Z,102018.59
2022-12-20T10:57:21.356Z,102019.97
2022-12-20T10:59:57.922Z,101994.53
2022-12-20T11:02:40.761Z,101999.44
2022-12-20T11:05:10.982Z,101989.94
2022-12-20T11:10:42.980Z,101980.97
2022-12-20T11:13:26.850Z,101975.53
2022-12-20T11:15:57.775Z,101966.72
2022-12-20T11:18:27.627Z,101956.47
2022-12-20T11:21:27.654Z,101965.00
2022-12-20T11:23:56.626Z,101957.59
2022-12-20T11:26:49.933Z,101957.06
2022-12-20T11:29:33.784Z,101955.84
2022-12-20T11:32:44.546Z,101946.94
2022-12-20T11:35:46.644Z,101957.63
2022-12-20T11:38:51.286Z,101944.94
2022-12-20T11:41:40.797Z,101942.75
2022-12-20T11:44:32.676Z,101933.13
2022-12-20T11:47:16.233Z,101944.53
2022-12-20T11:49:59.880Z,101932.34
2022-12-20T11:52:54.478Z,101928.34
2022-12-20T11:55:27.934Z,101937.91
2022-12-20T12:00:56.406Z,101923.66
2022-12-20T12:03:34.931Z,101932.97
2022-12-20T12:06:08.834Z,101924.41
2022-12-20T12:08:45.604Z,101919.72
2022-12-20T12:14:29.341Z,101914.66
2022-12-20T12:17:06.081Z,101920.75
2022-12-20T12:19:41.524Z,101912.16
2022-12-20T12:22:20.886Z,101918.34
2022-12-20T12:24:56.366Z,101918.63
2022-12-20T12:27:26.375Z,101908.53
2022-12-20T12:29:58.478Z,101903.66
2022-12-20T12:32:46.018Z,101899.84
2022-12-20T12:35:20.181Z,101894.34
2022-12-20T12:37:55.833Z,101895.13
2022-12-20T12:40:33.110Z,101895.81
2022-12-20T12:43:31.461Z,101892.63
2022-12-20T12:46:01.406Z,101890.06
2022-12-20T12:48:41.533Z,101894.19
2022-12-20T12:51:11.320Z,101890.31
2022-12-20T12:54:26.826Z,101883.25
2022-12-20T12:57:10.749Z,101888.78
2022-12-20T12:59:38.770Z,101875.50
2022-12-20T13:02:16.727Z,101876.38
2022-12-20T13:04:59.506Z,101866.81
2022-12-20T13:07:33.769Z,101868.69
2022-12-20T13:10:25.704Z,101870.38
2022-12-20T13:13:02.098Z,101860.00
2022-12-20T13:15:33.032Z,101854.13
2022-12-20T13:18:18.072Z,101865.56
2022-12-20T13:21:27.563Z,101852.81
2022-12-20T13:24:33.109Z,101851.84
2022-12-20T13:27:03.073Z,101846.56
2022-12-20T13:29:36.820Z,101843.84
2022-12-20T13:32:43.240Z,101844.63
2022-12-20T13:35:26.524Z,101833.28
2022-12-20T13:38:27.425Z,101848.47
2022-12-20T13:41:00.308Z,101832.66
2022-12-20T13:43:48.261Z,101833.31
2022-12-20T13:46:42.627Z,101839.16
2022-12-20T13:49:16.268Z,101831.75
2022-12-20T13:51:44.197Z,101831.22
2022-12-20T13:54:26.683Z,101832.84
2022-12-20T13:56:55.577Z,101824.03
2022-12-20T13:59:27.850Z,101833.34
2022-12-20T14:01:59.452Z,101833.88
2022-12-20T14:04:39.545Z,101827.50
2022-12-20T14:07:13.368Z,101837.88
2022-12-20T14:09:45.925Z,101838.66
2022-12-20T14:12:26.220Z,101826.97
2022-12-20T14:14:56.637Z,101833.66
2022-12-20T14:17:27.857Z,101833.63
2022-12-20T14:20:15.298Z,101828.50
2022-12-20T14:22:43.726Z,101825.81
2022-12-20T14:25:17.873Z,101834.81
2022-12-20T14:27:48.271Z,101825.34
2022-12-20T14:30:32.231Z,101815.47
2022-12-20T14:33:02.853Z,101814.94
2022-12-20T14:35:30.917Z,101822.13
2022-12-20T14:38:02.817Z,101817.53
2022-12-20T14:40:30.797Z,101821.75
2022-12-20T14:42:59.117Z,101819.97
2022-12-20T14:45:28.301Z,101827.69
2022-12-20T14:47:58.876Z,101812.81
2022-12-20T14:50:31.745Z,101809.41
2022-12-20T14:53:00.462Z,101811.03
2022-12-20T14:55:37.746Z,101809.94
2022-12-20T14:58:27.725Z,101805.19
2022-12-20T15:01:16.188Z,101809.13
2022-12-20T15:03:53.183Z,101806.97
2022-12-20T15:06:32.866Z,101802.19
2022-12-20T15:09:01.629Z,101806.44
2022-12-20T15:11:29.958Z,101805.09
2022-12-20T15:13:59.330Z,101798.97
2022-12-20T15:16:29.720Z,101798.69
2022-12-20T15:19:03.407Z,101800.25
2022-12-20T15:21:31.176Z,101793.06
2022-12-20T15:24:02.432Z,101793.66
2022-12-20T15:26:31.246Z,101795.78
2022-12-20T15:28:59.546Z,101801.41
2022-12-20T15:31:33.652Z,101790.50
2022-12-20T15:34:20.415Z,101799.31
2022-12-20T15:36:48.308Z,101802.22
2022-12-20T15:39:16.549Z,101790.78
2022-12-20T15:41:47.643Z,101793.44
2022-12-20T15:44:19.359Z,101792.13
2022-12-20T15:46:47.860Z,101792.66
2022-12-20T15:49:21.489Z,101802.50
2022-12-20T15:51:51.218Z,101790.00
2022-12-20T15:54:22.951Z,101794.81
2022-12-20T15:56:52.244Z,101790.53
2022-12-20T15:59:57.731Z,101795.59
2022-12-20T16:02:29.204Z,101792.13
2022-12-20T16:04:59.235Z,101791.88
2022-12-20T16:07:27.427Z,101792.91
2022-12-20T16:09:55.556Z,101799.28
2022-12-20T16:12:30.520Z,101788.13
2022-12-20T16:14:59.665Z,101790.75
2022-12-20T16:17:27.489Z,101791.06
2022-12-20T16:19:55.740Z,101790.53
2022-12-20T16:22:24.731Z,101801.19
2022-12-20T16:24:53.027Z,101797.97
2022-12-20T16:27:21.248Z,101798.25
2022-12-20T16:29:50.175Z,101789.47
2022-12-20T16:32:22.806Z,101786.81
2022-12-20T16:34:51.483Z,101788.13
2022-12-20T16:37:19.564Z,101783.34
2022-12-20T16:39:48.893Z,101794.25
2022-12-20T16:42:22.606Z,101788.13
2022-12-20T16:44:53.533Z,101796.09
2022-12-20T16:47:22.551Z,101789.47
2022-12-20T16:49:53.432Z,101792.13
2022-12-20T16:52:23.267Z,101786.81
2022-12-20T16:54:52.256Z,101788.41
2022-12-20T16:57:21.764Z,101779.34
2022-12-20T16:59:49.998Z,101781.22
2022-12-20T17:02:31.959Z,101786.03
2022-12-20T17:05:02.272Z,101781.22
2022-12-20T17:07:30.664Z,101782.28
2022-12-20T17:09:59.995Z,101783.88
2022-12-20T17:12:27.783Z,101772.72
2022-12-20T17:14:57.034Z,101770.31
2022-12-20T17:17:24.904Z,101768.47
2022-12-20T17:19:52.947Z,101775.63
2022-12-20T17:25:14.116Z,101773.78
2022-12-20T17:27:42.990Z,101774.03
2022-12-20T17:30:11.545Z,101774.56
2022-12-20T17:32:39.458Z,101781.50
2022-12-20T17:35:19.623Z,101774.28
2022-12-20T17:37:48.128Z,101783.63
2022-12-20T17:40:16.527Z,101769.25
2022-12-20T17:42:44.582Z,101774.03
2022-12-20T17:45:25.704Z,101777.25
2022-12-20T17:47:55.179Z,101772.44
2022-12-20T17:50:24.739Z,101782.56
2022-12-20T17:52:53.162Z,101772.16
2022-12-20T17:55:27.527Z,101781.50
2022-12-20T17:57:56.475Z,101779.34
2022-12-20T18:00:38.562Z,101776.97
2022-12-20T18:03:07.329Z,101771.66
2022-12-20T18:05:35.590Z,101777.50
2022-12-20T18:08:03.484Z,101782.53
2022-12-20T18:10:32.470Z,101775.13
2022-12-20T18:13:00.307Z,101775.09
2022-12-20T18:15:28.545Z,101759.41
2022-12-20T18:17:56.523Z,101756.13
2022-12-20T18:20:24.792Z,101761.78
2022-12-20T18:22:52.688Z,101754.06
2022-12-20T18:25:21.059Z,101767.88
2022-12-20T18:27:48.940Z,101761.78
2022-12-20T18:30:18.067Z,101758.88
2022-12-20T18:32:46.131Z,101756.47
2022-12-20T18:35:14.444Z,101757.81
2022-12-20T18:37:42.483Z,101755.69
2022-12-20T18:40:11.020Z,101770.31
2022-12-20T18:42:39.168Z,101769.53
2022-12-20T18:45:08.000Z,101776.16
2022-12-20T18:47:37.521Z,101780.13
2022-12-20T18:50:07.024Z,101774.28
2022-12-20T18:52:34.971Z,101775.06
2022-12-20T18:55:04.578Z,101772.69
2022-12-20T18:57:32.504Z,101767.09
2022-12-20T19:00:00.913Z,101763.66
2022-12-20T19:02:28.907Z,101762.22
2022-12-20T19:04:59.268Z,101765.22
2022-12-20T19:07:27.222Z,101768.44
2022-12-20T19:09:55.431Z,101774.19
2022-12-20T19:12:23.297Z,101773.91
2022-12-20T19:14:51.631Z,101763.59
2022-12-20T19:17:19.691Z,101773.97
2022-12-20T19:19:48.022Z,101764.44
2022-12-20T19:22:15.995Z,101775.06
2022-12-20T19:24:44.190Z,101769.25
2022-12-20T19:27:12.028Z,101772.38
2022-12-20T19:29:41.543Z,101771.38
2022-12-20T19:32:09.466Z,101768.94
2022-12-20T19:34:38.439Z,101761.00
2022-12-20T19:37:06.424Z,101760.66
2022-12-20T19:39:34.680Z,101768.16
2022-12-20T19:44:51.520Z,101751.13
2022-12-20T19:47:19.517Z,101747.66
2022-12-20T19:49:47.985Z,101750.31
2022-12-20T19:52:29.037Z,101741.56
2022-12-20T19:54:57.680Z,101743.72
2022-12-20T19:57:25.590Z,101747.69
2022-12-20T19:59:56.165Z,101744.69
2022-12-20T20:02:24.848Z,101750.06
2022-12-20T20:04:53.462Z,101748.22
2022-12-20T20:07:21.471Z,101739.47
2022-12-20T20:09:50.419Z,101750.13
2022-12-20T20:12:18.680Z,101751.41
2022-12-20T20:14:46.969Z,101739.44
2022-12-20T20:17:14.871Z,101741.28
2022-12-20T20:19:43.111Z,101734.69
2022-12-20T20:22:11.026Z,101743.97
2022-12-20T20:24:40.491Z,101738.41
2022-12-20T20:27:08.435Z,101738.91
2022-12-20T20:29:36.710Z,101733.88
2022-12-20T20:32:04.963Z,101732.53
2022-12-20T20:34:33.322Z,101731.72
2022-12-20T20:37:01.393Z,101730.66
2022-12-20T20:39:29.782Z,101735.94
2022-12-20T20:41:57.610Z,101734.91
2022-12-20T20:44:25.982Z,101726.63
2022-12-20T20:46:54.535Z,101734.03
2022-12-20T20:49:24.051Z,101726.94
2022-12-20T20:51:51.887Z,101729.03
2022-12-20T20:54:21.357Z,101730.38
2022-12-20T20:56:49.351Z,101733.56
2022-12-20T20:59:18.169Z,101728.19
2022-12-20T21:01:46.341Z,101725.59
2022-12-20T21:04:14.713Z,101722.94
2022-12-20T21:06:42.712Z,101724.50
2022-12-20T21:09:12.371Z,101717.88
2022-12-20T21:11:40.445Z,101717.88
2022-12-20T21:14:08.924Z,101726.91
2022-12-20T21:16:37.235Z,101717.38
2022-12-20T21:19:05.874Z,101725.88
2022-12-20T21:21:33.860Z,101721.63
2022-12-20T21:24:03.197Z,101715.72
2022-12-20T21:26:31.267Z,101712.31
2022-12-20T21:29:00.510Z,101708.06
2022-12-20T21:31:29.193Z,101711.50
2022-12-20T21:33:58.729Z,101702.75
2022-12-20T21:36:26.760Z,101710.47
2022-12-20T21:38:57.543Z,101702.50
2022-12-20T21:41:27.629Z,101705.16
2022-12-20T21:44:00.938Z,101701.16
2022-12-20T21:46:30.630Z,101708.63
2022-12-20T21:48:59.532Z,101703.56
2022-12-20T21:51:30.350Z,101700.88
2022-12-20T21:54:03.150Z,101711.78
2022-12-20T21:56:32.863Z,101697.97
2022-12-20T21:59:02.625Z,101697.44
2022-12-20T22:01:32.072Z,101698.78
2022-12-20T22:04:04.940Z,101701.69
2022-12-20T22:06:35.309Z,101700.63
2022-12-20T22:09:09.367Z,101704.34
2022-12-20T22:11:37.629Z,101699.81
2022-12-20T22:14:07.073Z,101692.13
2022-12-20T22:16:35.204Z,101688.94
2022-12-20T22:19:04.357Z,101679.66
2022-12-20T22:21:34.131Z,101683.63
2022-12-20T22:24:03.073Z,101683.63
2022-12-20T22:26:34.279Z,101679.09
2022-12-20T22:29:05.770Z,101687.09
2022-12-20T22:31:34.372Z,101685.72
2022-12-20T22:34:04.299Z,101675.91
2022-12-20T22:36:32.724Z,101670.88
2022-12-20T22:39:02.294Z,101667.91
2022-12-20T22:41:35.405Z,101669.53
2022-12-20T22:44:05.965Z,101671.41
2022-12-20T22:46:34.327Z,101668.47
2022-12-20T22:49:02.866Z,101671.13
2022-12-20T22:51:33.949Z,101666.31
2022-12-20T22:54:03.497Z,101662.34
2022-12-20T22:56:31.493Z,101664.19
2022-12-20T22:58:59.812Z,101656.25
2022-12-20T23:01:27.810Z,101659.44
2022-12-20T23:03:56.190Z,101658.34
2022-12-20T23:06:24.268Z,101659.44
2022-12-20T23:08:52.662Z,101656.22
2022-12-20T23:11:42.765Z,101654.91
2022-12-20T23:14:32.187Z,101641.88
2022-12-20T23:17:00.964Z,101635.75
2022-12-20T23:19:49.799Z,101632.56
2022-12-20T23:22:36.903Z,101634.44
2022-12-20T23:25:06.462Z,101622.47
2022-12-20T23:27:34.747Z,101622.97
2022-12-20T23:30:05.793Z,101629.63
2022-12-20T23:32:33.781Z,101617.41
2022-12-20T23:35:05.640Z,101611.03
2022-12-20T23:37:38.922Z,101605.97
2022-12-20T23:40:10.104Z,101596.13
2022-12-20T23:42:38.246Z,101587.66
2022-12-20T23:45:07.085Z,101592.44
2022-12-20T23:47:35.011Z,101588.44
2022-12-20T23:50:04.795Z,101582.59
2022-12-20T23:52:32.687Z,101592.69
2022-12-20T23:55:01.064Z,101582.03
2022-12-20T23:57:31.510Z,101567.13
2022-12-20T23:59:59.725Z,101576.22
